Time;durP1;ratioP1;P1;durP2;ratioP2;P2;SDS_P1;SDS_P2;PMS_P1;PMS_P2;Temp;Humidity;BMP_temperature;BMP_pressure;BME280_temperature;BME280_humidity;BME280_pressure;Samples;Min_cycle;Max_cycle;Signal;HPM_P1;HPM_P2
2022/11/16 00:01:47;;;;;;;0.00;0.00;;;15.50;92.80;;;;;;4241252;27;20099;-57
2022/11/16 00:04:28;;;;;;;0.00;0.00;;;15.50;92.90;;;;;;4229448;27;20809;-56
2022/11/16 00:07:09;;;;;;;0.00;0.00;;;15.50;92.90;;;;;;4259038;27;20054;-57
2022/11/16 00:09:51;;;;;;;0.00;0.00;;;15.50;92.90;;;;;;4242453;27;20058;-57
2022/11/16 00:12:32;;;;;;;0.00;0.00;;;15.40;92.90;;;;;;4225407;28;20481;-58
2022/11/16 00:15:13;;;;;;;0.85;0.85;;;15.50;93.40;;;;;;4228291;27;20050;-57
2022/11/16 00:17:54;;;;;;;0.00;0.00;;;15.40;93.00;;;;;;4216563;27;20047;-55
2022/11/16 00:20:34;;;;;;;0.00;0.00;;;15.40;93.10;;;;;;4240462;27;20437;-56
2022/11/16 00:23:15;;;;;;;0.00;0.00;;;15.50;93.10;;;;;;4240699;27;20049;-58
2022/11/16 00:26:02;;;;;;;0.30;0.30;;;15.40;93.20;;;;;;4242112;27;20066;-58
2022/11/16 00:28:43;;;;;;;0.10;0.10;;;15.40;93.20;;;;;;4242476;27;20065;-57
2022/11/16 00:31:25;;;;;;;0.00;0.00;;;15.40;93.20;;;;;;4241452;27;20525;-58
2022/11/16 00:34:05;;;;;;;0.00;0.00;;;15.40;93.30;;;;;;4241112;27;20113;-59
2022/11/16 00:36:47;;;;;;;0.40;0.40;;;15.40;93.30;;;;;;4243440;27;20068;-56
2022/11/16 00:39:28;;;;;;;;;;;15.40;93.40;;;;;;4259497;27;20490;-58
2022/11/16 00:42:10;;;;;;;0.00;0.00;;;15.40;93.40;;;;;;4231486;27;20270;-55
2022/11/16 00:44:51;;;;;;;0.00;0.00;;;15.40;93.30;;;;;;4240058;27;20049;-57
2022/11/16 00:47:32;;;;;;;0.15;0.15;;;15.40;93.40;;;;;;4242072;27;20393;-56
2022/11/16 00:50:13;;;;;;;0.00;0.00;;;15.40;93.40;;;;;;4229280;27;20500;-58
2022/11/16 00:52:54;;;;;;;0.00;0.00;;;15.40;93.50;;;;;;4239072;27;20065;-57
2022/11/16 00:55:36;;;;;;;0.00;0.00;;;15.30;93.50;;;;;;4258860;27;20770;-57
2022/11/16 00:58:18;;;;;;;0.00;0.00;;;15.30;93.50;;;;;;4246025;27;20049;-58
2022/11/16 01:01:06;;;;;;;0.00;0.00;;;15.30;93.50;;;;;;4200647;28;20406;-57
2022/11/16 01:03:47;;;;;;;0.03;0.03;;;15.30;93.50;;;;;;4212057;27;20058;-55
2022/11/16 01:06:28;;;;;;;0.05;0.05;;;15.30;93.50;;;;;;4213925;27;20054;-57
2022/11/16 01:09:09;;;;;;;0.00;0.00;;;15.30;93.60;;;;;;4225455;28;20098;-55
2022/11/16 01:14:49;;;;;;;0.00;0.00;;;15.30;93.60;;;;;;4212996;27;20050;-57
2022/11/16 01:17:30;;;;;;;0.00;0.00;;;15.30;93.60;;;;;;4224787;28;20050;-57
2022/11/16 01:20:14;;;;;;;0.00;0.00;;;15.30;93.60;;;;;;4225413;28;20108;-57
2022/11/16 01:22:55;;;;;;;0.00;0.00;;;15.30;93.70;;;;;;4229199;28;20062;-57
2022/11/16 01:25:36;;;;;;;0.00;0.00;;;15.30;93.70;;;;;;4222521;28;20059;-57
2022/11/16 01:28:17;;;;;;;0.45;0.45;;;15.30;93.70;;;;;;4212272;27;20054;-57
2022/11/16 01:31:04;;;;;;;0.00;0.00;;;15.30;93.70;;;;;;4212404;27;20528;-56
2022/11/16 01:33:48;;;;;;;0.00;0.00;;;15.30;93.70;;;;;;4211979;27;20124;-57
2022/11/16 01:36:36;;;;;;;0.00;0.00;;;15.30;93.80;;;;;;4212056;27;20113;-57
2022/11/16 01:39:18;;;;;;;2.28;0.55;;;15.30;93.80;;;;;;4234976;28;20093;-58
2022/11/16 01:42:05;;;;;;;0.00;0.00;;;15.30;94.20;;;;;;4225800;28;20112;-58
2022/11/16 01:45:01;;;;;;;0.00;0.00;;;15.30;93.80;;;;;;4196584;28;20067;-55
2022/11/16 01:47:45;;;;;;;0.00;0.00;;;15.20;93.80;;;;;;4240245;28;20121;-58
2022/11/16 01:50:30;;;;;;;0.00;0.00;;;15.30;93.90;;;;;;4222822;28;20077;-56
2022/11/16 01:53:13;;;;;;;0.00;0.00;;;15.30;93.90;;;;;;4241614;28;20050;-55
2022/11/16 01:56:07;;;;;;;0.38;0.38;;;15.20;93.80;;;;;;4222757;28;20054;-54
2022/11/16 01:58:58;;;;;;;0.20;0.20;;;15.30;93.90;;;;;;4227718;28;21881;-57
2022/11/16 02:01:39;;;;;;;0.00;0.00;;;15.20;93.90;;;;;;4197128;28;20055;-57
2022/11/16 02:04:22;;;;;;;0.00;0.00;;;15.30;94.00;;;;;;4207870;28;20502;-57
2022/11/16 02:07:15;;;;;;;0.00;0.00;;;15.30;94.00;;;;;;4225759;28;20224;-56
2022/11/16 02:10:09;;;;;;;0.30;0.30;;;15.30;94.10;;;;;;4232275;27;20549;-55
2022/11/16 02:13:07;;;;;;;0.00;0.00;;;15.30;94.10;;;;;;4231535;27;20058;-58
2022/11/16 02:16:00;;;;;;;0.00;0.00;;;15.20;94.10;;;;;;4232015;27;20058;-57
2022/11/16 02:18:52;;;;;;;0.03;0.03;;;15.20;94.10;;;;;;4222756;27;20047;-56
2022/11/16 02:21:43;;;;;;;0.00;0.00;;;15.20;94.10;;;;;;4216871;28;20515;-57
2022/11/16 02:24:51;;;;;;;0.47;0.47;;;15.20;94.10;;;;;;4244102;27;20058;-56
2022/11/16 02:28:00;;;;;;;0.00;0.00;;;15.20;94.10;;;;;;4231490;27;20050;-55
2022/11/16 02:30:47;;;;;;;0.00;0.00;;;15.20;94.10;;;;;;4207493;27;20038;-55
2022/11/16 02:33:34;;;;;;;0.47;0.47;;;15.20;94.10;;;;;;4241239;27;20049;-57
2022/11/16 02:36:21;;;;;;;0.00;0.00;;;15.20;94.10;;;;;;4249044;27;20044;-54
2022/11/16 02:39:05;;;;;;;0.00;0.00;;;15.20;94.10;;;;;;4251964;27;20062;-55
2022/11/16 02:41:49;;;;;;;0.00;0.00;;;15.20;94.10;;;;;;4227760;27;20049;-57
2022/11/16 02:44:34;;;;;;;0.00;0.00;;;15.20;94.10;;;;;;4219187;27;20054;-53
2022/11/16 02:47:23;;;;;;;0.17;0.17;;;15.20;94.10;;;;;;4234741;27;20054;-56
2022/11/16 02:50:08;;;;;;;0.00;0.00;;;15.20;94.20;;;;;;4248308;27;20176;-56
2022/11/16 02:52:48;;;;;;;0.10;0.10;;;15.20;94.20;;;;;;4238013;27;20077;-57
2022/11/16 02:55:33;;;;;;;0.00;0.00;;;15.20;94.20;;;;;;4243669;27;20127;-58
2022/11/16 02:58:20;;;;;;;0.13;0.13;;;15.20;94.10;;;;;;4223698;28;20358;-57
2022/11/16 03:01:03;;;;;;;0.10;0.10;;;15.20;94.20;;;;;;4235627;27;20104;-56
2022/11/16 03:03:52;;;;;;;0.00;0.00;;;15.20;94.20;;;;;;4229411;27;20516;-57
2022/11/16 03:06:38;;;;;;;0.00;0.00;;;15.20;94.20;;;;;;4242824;27;20123;-55
2022/11/16 03:09:24;;;;;;;0.03;0.03;;;15.20;94.20;;;;;;4226262;27;20054;-56
2022/11/16 03:12:09;;;;;;;0.00;0.00;;;15.10;94.20;;;;;;4211743;28;20055;-57
2022/11/16 03:14:54;;;;;;;0.00;0.00;;;15.10;94.20;;;;;;4225026;27;20382;-55
2022/11/16 03:17:40;;;;;;;0.00;0.00;;;15.20;94.20;;;;;;4242862;27;20042;-57
2022/11/16 03:20:27;;;;;;;0.00;0.00;;;15.20;94.20;;;;;;4230847;27;20049;-58
2022/11/16 03:23:10;;;;;;;0.00;0.00;;;15.20;94.20;;;;;;4243349;27;20054;-58
2022/11/16 03:25:58;;;;;;;0.00;0.00;;;15.20;94.30;;;;;;4226616;27;20067;-57
2022/11/16 03:28:48;;;;;;;0.03;0.03;;;15.10;94.30;;;;;;4229409;27;20054;-58
2022/11/16 03:31:34;;;;;;;0.00;0.00;;;15.20;94.30;;;;;;4230372;27;20515;-57
2022/11/16 03:34:18;;;;;;;0.05;0.05;;;15.20;94.30;;;;;;4230455;27;20132;-57
2022/11/16 03:37:02;;;;;;;0.00;0.00;;;15.10;94.30;;;;;;4235029;27;20058;-55
2022/11/16 03:39:44;;;;;;;0.00;0.00;;;15.10;94.20;;;;;;4260497;27;20053;-56
2022/11/16 03:42:27;;;;;;;0.30;0.30;;;15.20;94.20;;;;;;4229729;27;20180;-54
2022/11/16 03:45:11;;;;;;;0.57;0.57;;;15.20;94.20;;;;;;4230838;27;20432;-57
2022/11/16 03:47:51;;;;;;;0.10;0.10;;;15.10;94.20;;;;;;4230436;27;20062;-57
2022/11/16 03:50:33;;;;;;;0.00;0.00;;;15.10;94.30;;;;;;4234289;27;20053;-57
2022/11/16 03:53:16;;;;;;;0.63;0.30;;;15.10;94.20;;;;;;4247925;27;20054;-56
2022/11/16 03:55:57;;;;;;;0.00;0.00;;;15.10;94.30;;;;;;4252682;27;20099;-56
2022/11/16 03:58:40;;;;;;;0.10;0.10;;;15.10;94.30;;;;;;4242814;27;20127;-57
2022/11/16 04:01:21;;;;;;;0.03;0.03;;;15.10;94.30;;;;;;4241281;27;20140;-57
2022/11/16 04:04:02;;;;;;;0.00;0.00;;;15.10;94.30;;;;;;4230303;27;20054;-58
2022/11/16 04:24:56;;;;;;;0.00;0.00;;;15.10;94.40;;;;;;4207959;28;20043;-59
2022/11/16 04:39:30;;;;;;;0.13;0.13;;;15.00;94.40;;;;;;4239915;27;20046;-60
2022/11/16 04:42:18;;;;;;;1.27;0.90;;;15.00;94.40;;;;;;4229313;27;20558;-60
2022/11/16 04:48:04;;;;;;;0.00;0.00;;;15.00;94.40;;;;;;4224698;28;20529;-60
2022/11/16 04:50:47;;;;;;;0.00;0.00;;;15.00;94.40;;;;;;4224170;28;20051;-59
2022/11/16 04:53:28;;;;;;;0.00;0.00;;;15.00;94.40;;;;;;4224530;28;20046;-60
2022/11/16 04:56:20;;;;;;;0.00;0.00;;;15.00;94.40;;;;;;4216897;27;20097;-58
2022/11/16 04:59:02;;;;;;;0.88;0.65;;;15.00;94.40;;;;;;4212599;28;20074;-59
2022/11/16 05:04:43;;;;;;;0.65;0.65;;;15.00;94.50;;;;;;4229350;27;20084;-60
2022/11/16 05:07:25;;;;;;;0.00;0.00;;;15.00;94.50;;;;;;4228807;27;20050;-60
2022/11/16 05:10:14;;;;;;;0.10;0.10;;;15.00;94.50;;;;;;4221111;28;20050;-60
2022/11/16 05:12:55;;;;;;;0.52;0.52;;;15.00;94.50;;;;;;4218599;28;20067;-60
2022/11/16 05:15:39;;;;;;;0.00;0.00;;;15.00;94.50;;;;;;4208846;28;20062;-60
2022/11/16 05:18:20;;;;;;;0.00;0.00;;;15.00;94.50;;;;;;4207884;28;20857;-60
2022/11/16 05:21:00;;;;;;;0.00;0.00;;;15.00;94.50;;;;;;4208850;28;20062;-60
2022/11/16 05:26:44;;;;;;;0.00;0.00;;;15.00;94.50;;;;;;4216421;28;20401;-59
2022/11/16 05:29:25;;;;;;;0.10;0.10;;;15.00;94.50;;;;;;4250490;27;20183;-59
2022/11/16 05:32:10;;;;;;;0.08;0.08;;;15.00;94.60;;;;;;4246291;27;20050;-58
2022/11/16 05:34:51;;;;;;;0.00;0.00;;;15.00;94.60;;;;;;4246207;27;20089;-59
2022/11/16 05:37:33;;;;;;;0.00;0.00;;;15.00;94.60;;;;;;4246246;27;20134;-60
2022/11/16 05:40:15;;;;;;;0.00;0.00;;;15.00;94.50;;;;;;4210801;28;20051;-60
2022/11/16 05:43:08;;;;;;;0.90;0.85;;;15.00;94.60;;;;;;4222454;28;20100;-60
2022/11/16 05:45:55;;;;;;;0.10;0.10;;;15.00;94.60;;;;;;4215315;28;20073;-60
2022/11/16 05:48:37;;;;;;;0.05;0.05;;;15.00;94.60;;;;;;4218194;27;20046;-59
2022/11/16 05:51:20;;;;;;;0.00;0.00;;;15.00;94.60;;;;;;4249295;27;20175;-59
2022/11/16 05:54:02;;;;;;;0.00;0.00;;;15.00;94.60;;;;;;4248926;27;20064;-59
2022/11/16 05:56:43;;;;;;;0.00;0.00;;;15.00;94.60;;;;;;4256851;27;20196;-60
2022/11/16 05:59:24;;;;;;;0.15;0.15;;;15.00;94.70;;;;;;4244669;27;20161;-60
2022/11/16 06:02:08;;;;;;;0.00;0.00;;;15.00;94.70;;;;;;4223651;28;20761;-59
2022/11/16 06:04:50;;;;;;;0.15;0.15;;;15.00;94.70;;;;;;4193552;28;20059;-60
2022/11/16 06:07:32;;;;;;;0.65;0.65;;;15.00;94.70;;;;;;4209828;28;20166;-59
2022/11/16 06:10:14;;;;;;;0.68;0.63;;;14.90;94.60;;;;;;4201533;28;20055;-59
2022/11/16 06:12:57;;;;;;;0.00;0.00;;;15.00;94.70;;;;;;4192361;28;20154;-60
2022/11/16 06:15:38;;;;;;;0.10;0.10;;;15.00;94.70;;;;;;4193925;28;20234;-59
2022/11/16 06:18:20;;;;;;;0.00;0.00;;;15.00;94.70;;;;;;4203435;28;20051;-60
2022/11/16 06:21:03;;;;;;;;;;;15.00;94.60;;;;;;4209047;28;20225;-60
2022/11/16 06:23:45;;;;;;;0.60;0.60;;;15.00;94.60;;;;;;4193514;28;19978;-59
2022/11/16 06:26:26;;;;;;;0.08;0.08;;;14.90;94.60;;;;;;4191396;28;20043;-60
2022/11/16 06:29:08;;;;;;;0.00;0.00;;;14.90;95.10;;;;;;4204734;28;20064;-60
2022/11/16 06:31:49;;;;;;;0.00;0.00;;;14.90;94.70;;;;;;4198547;28;20055;-59
2022/11/16 06:34:30;;;;;;;0.00;0.00;;;14.90;94.70;;;;;;4212005;28;20086;-59
2022/11/16 06:37:12;;;;;;;0.00;0.00;;;14.90;94.70;;;;;;4226920;28;20101;-59
2022/11/16 06:39:53;;;;;;;0.03;0.03;;;14.90;94.80;;;;;;4226739;27;20046;-60
2022/11/16 06:42:34;;;;;;;;;;;14.90;94.80;;;;;;4208939;28;20160;-60
2022/11/16 06:45:15;;;;;;;0.25;0.25;;;14.90;94.80;;;;;;4209912;28;19942;-59
2022/11/16 06:48:02;;;;;;;0.03;0.03;;;14.90;94.80;;;;;;4193033;28;20530;-59
2022/11/16 06:50:42;;;;;;;0.00;0.00;;;14.90;94.80;;;;;;4194222;28;20522;-60
2022/11/16 06:53:25;;;;;;;0.00;0.00;;;14.90;94.90;;;;;;4191325;28;20178;-60
2022/11/16 06:56:14;;;;;;;0.00;0.00;;;15.00;95.10;;;;;;4192849;28;20055;-60
2022/11/16 06:59:01;;;;;;;0.22;0.22;;;15.00;95.10;;;;;;4192631;28;20074;-59
2022/11/16 07:01:43;;;;;;;0.00;0.00;;;15.00;95.00;;;;;;4209168;28;20051;-56
2022/11/16 07:04:26;;;;;;;0.00;0.00;;;15.00;95.00;;;;;;4193618;28;20070;-59
2022/11/16 07:07:11;;;;;;;0.00;0.00;;;15.00;95.00;;;;;;4182635;28;20093;-56
2022/11/16 07:09:54;;;;;;;0.00;0.00;;;15.00;95.00;;;;;;4207341;28;20185;-55
2022/11/16 07:12:35;;;;;;;0.00;0.00;;;15.00;95.00;;;;;;4201744;28;20043;-55
2022/11/16 07:15:18;;;;;;;0.95;0.57;;;15.00;95.00;;;;;;4176075;28;20051;-57
2022/11/16 07:18:04;;;;;;;0.35;0.35;;;15.00;95.00;;;;;;4175644;28;20064;-55
2022/11/16 07:20:46;;;;;;;0.40;0.40;;;15.00;95.00;;;;;;4189085;27;20557;-57
2022/11/16 07:23:30;;;;;;;0.00;0.00;;;15.00;95.10;;;;;;4200750;28;20051;-56
2022/11/16 07:26:13;;;;;;;0.10;0.10;;;15.00;95.00;;;;;;4208796;28;20419;-57
2022/11/16 07:29:02;;;;;;;0.00;0.00;;;15.00;95.00;;;;;;4191873;28;20376;-58
2022/11/16 07:31:43;;;;;;;0.52;0.52;;;15.00;95.00;;;;;;4192440;28;20059;-53
2022/11/16 07:34:43;;;;;;;0.10;0.10;;;15.00;95.00;;;;;;4208520;28;20506;-56
2022/11/16 07:37:28;;;;;;;0.00;0.00;;;15.00;95.00;;;;;;4208511;28;20483;-56
2022/11/16 07:40:09;;;;;;;0.00;0.00;;;15.00;94.90;;;;;;4207996;28;20125;-57
2022/11/16 07:42:56;;;;;;;0.00;0.00;;;15.00;94.90;;;;;;4188029;28;20059;-56
2022/11/16 07:45:43;;;;;;;0.00;0.00;;;15.00;94.90;;;;;;4207612;28;20195;-58
2022/11/16 07:48:24;;;;;;;0.32;0.32;;;15.00;94.90;;;;;;4191783;28;20125;-57
2022/11/16 07:51:24;;;;;;;0.40;0.40;;;15.00;94.90;;;;;;4207943;28;20535;-57
2022/11/16 07:54:32;;;;;;;0.00;0.00;;;15.00;95.20;;;;;;4208443;28;20069;-56
2022/11/16 07:57:14;;;;;;;0.22;0.22;;;15.00;94.90;;;;;;4202962;28;20131;-56
2022/11/16 07:59:57;;;;;;;0.00;0.00;;;15.00;94.90;;;;;;4191652;28;20067;-57
2022/11/16 08:02:38;;;;;;;0.00;0.00;;;15.00;95.00;;;;;;4191085;28;20125;-54
2022/11/16 08:05:22;;;;;;;0.00;0.00;;;15.00;95.00;;;;;;4203192;28;20461;-53
2022/11/16 08:08:04;;;;;;;0.20;0.20;;;15.00;94.90;;;;;;4220459;28;20054;-55
2022/11/16 08:10:48;;;;;;;0.00;0.00;;;15.00;95.00;;;;;;4210671;28;20059;-53
2022/11/16 08:13:32;;;;;;;0.17;0.17;;;15.00;95.00;;;;;;4207939;28;20177;-53
2022/11/16 08:16:17;;;;;;;0.00;0.00;;;15.00;95.00;;;;;;4214304;28;20502;-54
2022/11/16 08:18:59;;;;;;;38.83;2.20;;;15.00;95.00;;;;;;4202814;28;20068;-58
2022/11/16 08:21:40;;;;;;;0.00;0.00;;;15.00;94.90;;;;;;4182493;28;20557;-57
2022/11/16 08:24:22;;;;;;;0.20;0.15;;;15.00;95.00;;;;;;4192592;28;20491;-58
2022/11/16 08:27:03;;;;;;;0.00;0.00;;;15.00;94.90;;;;;;4195033;28;20059;-57
2022/11/16 08:29:44;;;;;;;;;;;15.00;95.20;;;;;;4196520;28;20178;-57
2022/11/16 08:32:28;;;;;;;0.65;0.65;;;15.00;94.80;;;;;;4219363;28;19989;-57
2022/11/16 08:35:10;;;;;;;0.00;0.00;;;15.00;94.80;;;;;;4196164;28;20125;-58
2022/11/16 08:37:51;;;;;;;0.00;0.00;;;15.00;94.80;;;;;;4207550;28;20038;-57
2022/11/16 08:40:34;;;;;;;0.57;0.57;;;15.00;94.80;;;;;;4207335;28;20059;-53
2022/11/16 08:43:15;;;;;;;0.38;0.38;;;15.00;95.20;;;;;;4200617;28;20502;-52
2022/11/16 08:45:57;;;;;;;0.65;0.65;;;15.00;94.80;;;;;;4206347;28;20055;-53
2022/11/16 08:48:39;;;;;;;0.00;0.00;;;15.00;94.80;;;;;;4200498;28;20051;-53
2022/11/16 08:51:22;;;;;;;0.00;0.00;;;14.90;94.70;;;;;;4207244;28;20419;-58
2022/11/16 08:54:09;;;;;;;0.00;0.00;;;15.00;94.80;;;;;;4201417;28;20074;-57
2022/11/16 08:56:53;;;;;;;0.00;0.00;;;15.00;94.70;;;;;;4205841;28;20059;-55
2022/11/16 08:59:34;;;;;;;0.25;0.25;;;15.00;94.90;;;;;;4207653;28;20050;-56
2022/11/16 09:02:24;;;;;;;0.03;0.03;;;15.00;95.10;;;;;;4206579;28;20054;-57
2022/11/16 09:05:10;;;;;;;0.70;0.70;;;15.10;95.20;;;;;;4208254;28;20051;-57
2022/11/16 09:07:51;;;;;;;0.00;0.00;;;15.00;95.10;;;;;;4207410;28;20059;-54
2022/11/16 09:10:32;;;;;;;0.00;0.00;;;15.10;95.00;;;;;;4215043;28;20065;-55
2022/11/16 09:13:13;;;;;;;0.00;0.00;;;15.10;94.90;;;;;;4217673;28;20093;-54
2022/11/16 09:15:57;;;;;;;0.00;0.00;;;15.10;94.80;;;;;;4207627;28;20051;-58
2022/11/16 09:18:39;;;;;;;3.50;0.60;;;15.10;94.80;;;;;;4192911;28;20055;-58
2022/11/16 09:21:23;;;;;;;0.00;0.00;;;15.10;94.80;;;;;;4208162;28;20062;-58
2022/11/16 09:24:04;;;;;;;0.57;0.57;;;15.00;94.80;;;;;;4208746;28;20141;-58
2022/11/16 09:26:45;;;;;;;0.00;0.00;;;15.10;94.70;;;;;;4208567;28;20501;-58
2022/11/16 09:29:26;;;;;;;0.00;0.00;;;15.10;94.70;;;;;;4208560;28;20051;-57
2022/11/16 09:32:07;;;;;;;1.17;1.17;;;15.10;94.70;;;;;;4190391;28;20059;-59
2022/11/16 09:34:48;;;;;;;0.57;0.57;;;15.00;94.70;;;;;;4191594;28;20078;-59
2022/11/16 09:37:30;;;;;;;0.35;0.35;;;15.00;94.70;;;;;;4191570;28;20051;-62
2022/11/16 09:40:12;;;;;;;0.00;0.00;;;15.00;94.70;;;;;;4191295;28;20063;-59
2022/11/16 09:43:01;;;;;;;0.00;0.00;;;15.00;94.70;;;;;;4191108;28;20059;-59
2022/11/16 09:45:52;;;;;;;0.00;0.00;;;15.00;94.70;;;;;;4175371;28;20404;-58
2022/11/16 09:48:37;;;;;;;0.00;0.00;;;15.00;94.70;;;;;;4191871;28;20062;-59
2022/11/16 09:51:21;;;;;;;0.00;0.00;;;15.00;94.70;;;;;;4214870;28;20043;-56
2022/11/16 09:54:08;;;;;;;0.00;0.00;;;15.00;94.60;;;;;;4225485;28;20512;-57
2022/11/16 09:56:53;;;;;;;0.10;0.10;;;15.00;94.60;;;;;;4223938;28;20140;-58
2022/11/16 09:59:38;;;;;;;0.00;0.00;;;15.00;94.60;;;;;;4225140;28;20180;-57
2022/11/16 10:02:24;;;;;;;0.00;0.00;;;15.00;94.60;;;;;;4224253;28;20046;-56
2022/11/16 10:05:13;;;;;;;0.00;0.00;;;15.00;94.60;;;;;;4209633;28;20055;-57
2022/11/16 10:08:02;;;;;;;0.00;0.00;;;15.00;94.60;;;;;;4191850;28;20055;-58
2022/11/16 10:10:54;;;;;;;1.08;0.40;;;15.00;94.60;;;;;;4194204;28;20507;-56
2022/11/16 10:13:46;;;;;;;1.27;0.75;;;15.00;95.00;;;;;;4208048;28;20182;-57
2022/11/16 10:16:30;;;;;;;;;;;15.00;94.60;;;;;;4208688;28;20477;-57
2022/11/16 10:19:24;;;;;;;0.00;0.00;;;15.00;94.60;;;;;;4208271;28;20389;-57
2022/11/16 10:22:19;;;;;;;3.40;1.33;;;15.00;94.60;;;;;;4191220;28;20062;-57
2022/11/16 10:25:06;;;;;;;0.22;0.22;;;15.00;94.60;;;;;;4191528;28;20402;-57
2022/11/16 10:28:05;;;;;;;0.05;0.05;;;15.00;94.60;;;;;;4194570;28;20405;-57
2022/11/16 10:30:54;;;;;;;42.83;1.65;;;15.00;94.60;;;;;;4192881;28;20048;-57
2022/11/16 10:33:36;;;;;;;0.00;0.00;;;15.00;95.00;;;;;;4194241;28;20200;-57
2022/11/16 10:36:20;;;;;;;0.00;0.00;;;15.00;94.50;;;;;;4194535;28;20052;-57
2022/11/16 10:39:01;;;;;;;0.00;0.00;;;15.00;94.50;;;;;;4193803;28;20085;-57
2022/11/16 10:41:46;;;;;;;0.20;0.20;;;15.00;94.50;;;;;;4204518;28;20189;-58
2022/11/16 10:44:35;;;;;;;0.00;0.00;;;15.00;94.50;;;;;;4210765;28;20047;-57
2022/11/16 10:47:22;;;;;;;0.00;0.00;;;15.00;94.50;;;;;;4210905;28;20051;-57
2022/11/16 10:50:08;;;;;;;0.00;0.00;;;15.00;94.90;;;;;;4210720;28;20125;-56
2022/11/16 10:52:49;;;;;;;0.05;0.05;;;15.00;94.50;;;;;;4224799;28;20054;-57
2022/11/16 10:55:30;;;;;;;0.17;0.17;;;15.00;94.50;;;;;;4227692;27;20084;-58
2022/11/16 10:58:11;;;;;;;0.35;0.35;;;15.00;94.50;;;;;;4209391;28;20074;-57
2022/11/16 11:00:53;;;;;;;0.00;0.00;;;15.00;94.50;;;;;;4209739;28;20062;-58
2022/11/16 11:03:34;;;;;;;0.00;0.00;;;15.00;94.50;;;;;;4204843;28;20066;-57
2022/11/16 11:06:16;;;;;;;2.08;1.20;;;15.00;94.50;;;;;;4241891;27;20162;-57
2022/11/16 11:09:15;;;;;;;0.00;0.00;;;15.00;94.60;;;;;;4243247;27;20051;-57
2022/11/16 11:15:05;;;;;;;0.00;0.00;;;15.10;94.60;;;;;;4227294;27;20050;-58
2022/11/16 11:17:50;;;;;;;0.10;0.10;;;15.10;94.40;;;;;;4217841;27;20050;-58
2022/11/16 11:20:30;;;;;;;0.00;0.00;;;15.10;94.30;;;;;;4228351;27;20046;-57
2022/11/16 11:23:15;;;;;;;0.00;0.00;;;15.10;94.30;;;;;;4241992;27;20508;-58
2022/11/16 11:25:57;;;;;;;0.10;0.10;;;15.10;94.30;;;;;;4242949;27;20049;-58
2022/11/16 11:28:46;;;;;;;1.45;0.98;;;15.10;94.70;;;;;;4242703;27;20602;-58
2022/11/16 11:31:33;;;;;;;0.00;0.00;;;15.10;94.30;;;;;;4243282;27;20238;-54
2022/11/16 11:34:20;;;;;;;0.45;0.45;;;15.10;94.30;;;;;;4242181;27;20053;-54
2022/11/16 11:37:02;;;;;;;0.00;0.00;;;15.10;94.30;;;;;;4251835;27;20507;-54
2022/11/16 11:39:43;;;;;;;9.90;2.55;;;15.10;94.60;;;;;;4243592;27;20200;-54
2022/11/16 11:42:24;;;;;;;0.00;0.00;;;15.10;94.30;;;;;;4241780;27;20070;-53
2022/11/16 11:45:08;;;;;;;2.10;1.90;;;15.10;94.30;;;;;;4243468;27;20058;-54
2022/11/16 11:47:53;;;;;;;1.35;1.30;;;15.10;94.40;;;;;;4241808;27;20042;-54
2022/11/16 11:50:47;;;;;;;0.00;0.00;;;15.10;94.60;;;;;;4226928;27;20512;-54
2022/11/16 11:53:45;;;;;;;1.90;1.65;;;15.10;94.60;;;;;;4243161;27;20035;-55
2022/11/16 11:56:29;;;;;;;5.60;1.95;;;15.10;94.50;;;;;;4242592;27;20385;-55
2022/11/16 11:59:18;;;;;;;0.00;0.00;;;15.20;94.50;;;;;;4224174;28;20050;-54
2022/11/16 12:02:18;;;;;;;0.00;0.00;;;15.20;94.50;;;;;;4242606;27;20180;-54
2022/11/16 12:05:15;;;;;;;0.60;0.60;;;15.20;94.50;;;;;;4242414;27;20183;-52
2022/11/16 12:08:15;;;;;;;0.00;0.00;;;15.20;94.50;;;;;;4224628;28;20062;-53
2022/11/16 12:11:04;;;;;;;0.00;0.00;;;15.20;94.50;;;;;;4213084;28;20123;-55
2022/11/16 12:14:00;;;;;;;0.00;0.00;;;15.20;94.50;;;;;;4226353;28;20046;-53
2022/11/16 12:16:48;;;;;;;0.00;0.00;;;15.10;94.50;;;;;;4234598;27;20050;-53
2022/11/16 12:19:58;;;;;;;0.00;0.00;;;15.20;94.50;;;;;;4242709;27;20050;-53
2022/11/16 12:22:58;;;;;;;0.00;0.00;;;15.10;94.50;;;;;;4225993;27;20051;-54
2022/11/16 12:25:52;;;;;;;0.00;0.00;;;15.20;94.50;;;;;;4225080;27;20173;-55
2022/11/16 12:28:49;;;;;;;0.47;0.47;;;15.10;94.50;;;;;;4242879;27;20112;-53
2022/11/16 12:31:56;;;;;;;0.00;0.00;;;15.10;94.50;;;;;;4242545;27;20057;-51
2022/11/16 12:34:52;;;;;;;0.00;0.00;;;15.20;94.50;;;;;;4226308;27;20058;-55
2022/11/16 12:37:39;;;;;;;0.00;0.00;;;15.20;94.50;;;;;;4245552;27;20053;-51
2022/11/16 12:40:46;;;;;;;0.05;0.05;;;15.10;94.40;;;;;;4259606;27;20037;-55
2022/11/16 12:43:35;;;;;;;0.00;0.00;;;15.20;94.50;;;;;;4240647;27;20054;-53
2022/11/16 12:46:25;;;;;;;0.17;0.17;;;15.20;94.40;;;;;;4225437;28;20046;-54
2022/11/16 12:49:33;;;;;;;0.20;0.20;;;15.20;94.40;;;;;;4225475;28;20104;-54
2022/11/16 12:52:27;;;;;;;0.00;0.00;;;15.20;94.40;;;;;;4242272;27;20496;-53
2022/11/16 12:55:20;;;;;;;0.00;0.00;;;15.20;94.50;;;;;;4241477;27;20062;-55
2022/11/16 12:58:15;;;;;;;0.00;0.00;;;15.20;94.50;;;;;;4224999;27;20414;-57
2022/11/16 13:01:08;;;;;;;0.00;0.00;;;15.20;94.40;;;;;;4225429;27;20054;-55
2022/11/16 13:03:52;;;;;;;0.00;0.00;;;15.30;94.50;;;;;;4227294;27;20051;-57
2022/11/16 13:06:38;;;;;;;3.17;1.80;;;15.30;94.50;;;;;;4242059;27;20050;-54
2022/11/16 13:09:21;;;;;;;0.75;0.75;;;15.30;94.50;;;;;;4225144;28;20100;-54
2022/11/16 13:12:12;;;;;;;0.00;0.00;;;15.30;94.50;;;;;;4244787;27;20058;-51
2022/11/16 13:14:56;;;;;;;0.20;0.20;;;15.30;94.50;;;;;;4240265;27;20183;-54
2022/11/16 13:17:39;;;;;;;0.10;0.10;;;15.30;94.60;;;;;;4242166;28;20076;-54
2022/11/16 13:20:35;;;;;;;1.45;1.35;;;15.30;94.50;;;;;;4240479;28;20078;-54
2022/11/16 13:23:22;;;;;;;0.00;0.00;;;15.30;94.50;;;;;;4224801;28;20059;-50
2022/11/16 13:26:09;;;;;;;0.00;0.00;;;15.30;94.50;;;;;;4225075;28;20050;-53
2022/11/16 13:28:56;;;;;;;0.00;0.00;;;15.30;94.50;;;;;;4214865;27;20410;-54
2022/11/16 13:31:42;;;;;;;0.47;0.30;;;15.30;94.50;;;;;;4251842;27;20866;-55
2022/11/16 13:34:28;;;;;;;0.00;0.00;;;15.40;94.60;;;;;;4241647;28;20049;-55
2022/11/16 13:37:47;;;;;;;0.20;0.20;;;15.40;94.60;;;;;;4224833;28;20054;-53
2022/11/16 13:40:30;;;;;;;0.00;0.00;;;15.40;94.50;;;;;;4241113;27;20057;-55
2022/11/16 13:43:18;;;;;;;0.10;0.10;;;15.40;94.50;;;;;;4240522;28;20062;-52
2022/11/16 13:46:01;;;;;;;0.00;0.00;;;15.40;94.50;;;;;;4240081;27;20081;-55
2022/11/16 13:48:45;;;;;;;4.05;1.17;;;15.40;94.60;;;;;;4224913;28;20054;-55
2022/11/16 13:51:27;;;;;;;0.00;0.00;;;15.40;94.60;;;;;;4239912;28;20069;-55
2022/11/16 13:54:13;;;;;;;0.00;0.00;;;15.40;94.60;;;;;;4226567;28;20613;-56
2022/11/16 13:57:27;;;;;;;0.00;0.00;;;15.40;94.60;;;;;;4224091;28;20050;-55
2022/11/16 14:00:11;;;;;;;0.00;0.00;;;15.50;94.70;;;;;;4240666;27;20180;-56
2022/11/16 14:03:37;;;;;;;0.00;0.00;;;15.50;94.80;;;;;;4218118;28;20062;-57
2022/11/16 14:06:59;;;;;;;0.00;0.00;;;15.50;94.80;;;;;;4235720;27;20497;-56
2022/11/16 14:09:42;;;;;;;0.00;0.00;;;15.50;94.80;;;;;;4244564;27;20050;-57
2022/11/16 14:12:51;;;;;;;0.20;0.20;;;15.50;94.80;;;;;;4228444;27;20094;-54
2022/11/16 14:15:34;;;;;;;0.00;0.00;;;15.50;94.80;;;;;;4243057;27;20447;-56
2022/11/16 14:18:36;;;;;;;0.52;0.52;;;15.50;95.20;;;;;;4243416;27;20591;-57
2022/11/16 14:21:33;;;;;;;0.10;0.10;;;15.50;94.90;;;;;;4227123;28;20600;-56
2022/11/16 14:24:27;;;;;;;0.10;0.10;;;15.50;94.80;;;;;;4244239;27;20066;-55
2022/11/16 14:27:17;;;;;;;0.10;0.10;;;15.50;94.80;;;;;;4244728;27;20116;-54
2022/11/16 14:30:04;;;;;;;0.00;0.00;;;15.50;94.90;;;;;;4244542;27;20046;-55
2022/11/16 14:32:47;;;;;;;0.00;0.00;;;15.50;95.00;;;;;;4244883;27;20057;-59
2022/11/16 14:35:33;;;;;;;0.00;0.00;;;15.50;95.00;;;;;;4244525;27;20054;-59
2022/11/16 14:38:26;;;;;;;0.00;0.00;;;15.50;95.00;;;;;;4231890;27;20485;-60
2022/11/16 14:41:13;;;;;;;0.00;0.00;;;15.50;95.00;;;;;;4239425;27;20055;-59
2022/11/16 14:43:57;;;;;;;0.30;0.30;;;15.50;95.00;;;;;;4244592;27;20062;-59
2022/11/16 14:46:38;;;;;;;0.00;0.00;;;15.50;95.00;;;;;;4242507;27;20524;-59
2022/11/16 14:49:20;;;;;;;0.00;0.00;;;15.60;95.00;;;;;;4215658;27;20062;-59
2022/11/16 14:52:07;;;;;;;0.10;0.10;;;15.60;95.00;;;;;;4227308;27;20058;-59
2022/11/16 14:54:52;;;;;;;1.02;0.15;;;15.60;95.00;;;;;;4242265;27;20064;-61
2022/11/16 14:57:33;;;;;;;0.00;0.00;;;15.50;94.90;;;;;;4243784;27;20050;-60
2022/11/16 15:00:20;;;;;;;0.00;0.00;;;15.50;95.30;;;;;;4243311;27;20106;-62
2022/11/16 15:03:02;;;;;;;0.00;0.00;;;15.50;94.90;;;;;;4241868;27;20050;-59
2022/11/16 15:05:45;;;;;;;0.00;0.00;;;15.60;94.90;;;;;;4242195;27;20108;-59
2022/11/16 15:08:33;;;;;;;0.30;0.30;;;15.50;94.90;;;;;;4241957;27;20054;-59
2022/11/16 15:11:23;;;;;;;0.20;0.20;;;15.50;94.90;;;;;;4231986;27;20592;-59